Time;durP1;ratioP1;P1;durP2;ratioP2;P2;SDS_P1;SDS_P2;PMS_P1;PMS_P2;Temp;Humidity;BMP_temperature;BMP_pressure;BME280_temperature;BME280_humidity;BME280_pressure;Samples;Min_cycle;Max_cycle;Signal;HPM_P1;HPM_P2
2023/03/09 00:02:04;;;;;;;;;0.33;0.33;;;;;;;;5033349;28;45687;-51
2023/03/09 00:04:29;;;;;;;;;0.00;0.00;;;;;;;;5032622;28;45499;-51
2023/03/09 00:06:55;;;;;;;;;0.00;0.00;;;;;;;;5032948;28;45441;-47
2023/03/09 00:09:20;;;;;;;;;1.00;1.00;;;;;;;;5033747;28;46043;-49
2023/03/09 00:11:47;;;;;;;;;1.33;0.00;;;;;;;;5031168;28;45425;-45
2023/03/09 00:14:12;;;;;;;;;0.33;0.33;;;;;;;;5034165;28;45575;-46
2023/03/09 00:16:38;;;;;;;;;1.00;1.00;;;;;;;;5034117;28;45660;-46
2023/03/09 00:19:03;;;;;;;;;1.67;0.00;;;;;;;;5033342;28;46210;-47
2023/03/09 00:21:40;;;;;;;;;0.00;0.00;;;;;;;;5028767;28;45469;-48
2023/03/09 00:24:10;;;;;;;;;1.00;0.67;;;;;;;;5020559;28;45561;-47
2023/03/09 00:26:38;;;;;;;;;0.00;0.00;;;;;;;;5033333;28;45655;-52
2023/03/09 00:29:04;;;;;;;;;1.00;1.00;;;;;;;;5024598;28;47017;-50
2023/03/09 00:31:29;;;;;;;;;0.00;0.00;;;;;;;;5054530;28;45510;-48
2023/03/09 00:33:54;;;;;;;;;0.00;0.00;;;;;;;;5036564;28;45443;-50
2023/03/09 00:36:20;;;;;;;;;2.00;0.33;;;;;;;;5054903;28;45385;-51
2023/03/09 00:38:49;;;;;;;;;1.00;1.00;;;;;;;;5054473;28;46016;-50
2023/03/09 00:41:14;;;;;;;;;1.67;1.00;;;;;;;;5053875;28;45473;-52
2023/03/09 00:43:39;;;;;;;;;1.00;1.00;;;;;;;;5054564;28;45496;-51
2023/03/09 00:46:05;;;;;;;;;1.00;1.00;;;;;;;;5054313;28;45555;-51
2023/03/09 00:48:30;;;;;;;;;0.00;0.00;;;;;;;;5054416;28;46299;-53
2023/03/09 00:50:55;;;;;;;;;0.00;0.00;;;;;;;;5054209;28;45506;-47
2023/03/09 00:53:20;;;;;;;;;1.33;0.00;;;;;;;;5054652;28;45429;-49
2023/03/09 00:55:45;;;;;;;;;1.00;1.00;;;;;;;;5055607;28;45390;-54
2023/03/09 00:58:11;;;;;;;;;0.00;0.00;;;;;;;;5053438;28;46205;-49
2023/03/09 01:00:37;;;;;;;;;1.00;0.00;;;;;;;;5053340;28;45466;-52
2023/03/09 01:03:03;;;;;;;;;2.00;0.00;;;;;;;;5035005;28;45375;-50
2023/03/09 01:05:28;;;;;;;;;1.33;1.33;;;;;;;;5052867;28;45545;-49
2023/03/09 01:07:53;;;;;;;;;1.33;0.00;;;;;;;;5051524;28;46392;-51
2023/03/09 01:10:18;;;;;;;;;1.00;1.00;;;;;;;;5053358;28;45769;-51
2023/03/09 01:12:43;;;;;;;;;1.00;1.00;;;;;;;;5050005;28;45406;-48
2023/03/09 01:15:10;;;;;;;;;1.00;0.00;;;;;;;;5052155;28;45602;-51
2023/03/09 01:17:35;;;;;;;;;1.00;0.00;;;;;;;;5051653;28;45560;-50
2023/03/09 01:20:02;;;;;;;;;0.00;0.00;;;;;;;;5046160;28;45442;-52
2023/03/09 01:22:28;;;;;;;;;2.00;0.67;;;;;;;;5051661;28;45442;-50
2023/03/09 01:24:54;;;;;;;;;1.00;1.00;;;;;;;;5051107;28;45658;-50
2023/03/09 01:27:19;;;;;;;;;1.00;1.00;;;;;;;;5050241;28;46486;-50
2023/03/09 01:29:44;;;;;;;;;0.00;0.00;;;;;;;;5031560;28;45821;-51
2023/03/09 01:32:09;;;;;;;;;2.00;2.00;;;;;;;;5051839;28;45427;-50
2023/03/09 01:34:34;;;;;;;;;0.67;0.67;;;;;;;;5050359;28;45520;-49
2023/03/09 01:37:00;;;;;;;;;0.00;0.00;;;;;;;;5049482;28;45496;-48
2023/03/09 01:39:25;;;;;;;;;2.00;0.00;;;;;;;;5043667;28;45533;-47
2023/03/09 01:41:50;;;;;;;;;0.00;0.00;;;;;;;;5051917;28;45497;-51
2023/03/09 01:44:15;;;;;;;;;2.00;1.00;;;;;;;;5051706;28;45703;-49
2023/03/09 01:46:52;;;;;;;;;0.67;0.67;;;;;;;;5030993;28;47147;-52
2023/03/09 01:49:30;;;;;;;;;1.00;1.00;;;;;;;;5052492;28;45484;-49
2023/03/09 01:51:55;;;;;;;;;1.67;1.00;;;;;;;;5050358;28;45513;-51
2023/03/09 01:54:39;;;;;;;;;1.00;1.00;;;;;;;;5050670;28;45563;-51
2023/03/09 01:57:07;;;;;;;;;0.00;0.00;;;;;;;;5051512;28;46407;-50
2023/03/09 01:59:33;;;;;;;;;2.00;0.00;;;;;;;;5049913;28;45613;-50
2023/03/09 02:02:00;;;;;;;;;1.00;1.00;;;;;;;;5052425;28;45537;-51
2023/03/09 02:04:29;;;;;;;;;0.67;0.67;;;;;;;;5049103;28;45661;-52
2023/03/09 02:06:55;;;;;;;;;1.00;1.00;;;;;;;;5048179;28;45624;-53
2023/03/09 02:09:20;;;;;;;;;0.67;0.00;;;;;;;;5050376;28;45771;-48
2023/03/09 02:11:45;;;;;;;;;1.33;1.00;;;;;;;;5031158;28;45480;-50
2023/03/09 02:14:11;;;;;;;;;2.00;0.00;;;;;;;;5049485;28;45477;-51
2023/03/09 02:16:36;;;;;;;;;1.00;1.00;;;;;;;;5032535;28;46031;-50
2023/03/09 02:19:01;;;;;;;;;1.00;1.00;;;;;;;;5055178;28;45594;-48
2023/03/09 02:21:35;;;;;;;;;4.67;1.00;;;;;;;;5068273;28;45569;-47
2023/03/09 02:24:09;;;;;;;;;1.00;1.00;;;;;;;;5060368;27;45510;-52
2023/03/09 02:26:38;;;;;;;;;2.67;1.67;;;;;;;;5052900;28;46606;-49
2023/03/09 02:29:04;;;;;;;;;1.00;1.00;;;;;;;;5039317;28;45482;-49
2023/03/09 02:31:29;;;;;;;;;2.00;1.67;;;;;;;;5042778;28;45486;-50
2023/03/09 02:33:54;;;;;;;;;2.00;1.00;;;;;;;;5040994;28;45537;-46
2023/03/09 02:36:21;;;;;;;;;1.00;1.00;;;;;;;;5073256;27;45417;-49
2023/03/09 02:38:46;;;;;;;;;3.33;2.00;;;;;;;;5064607;28;45435;-51
2023/03/09 02:41:12;;;;;;;;;1.67;1.67;;;;;;;;5054801;28;45456;-50
2023/03/09 02:43:42;;;;;;;;;1.33;1.33;;;;;;;;5064714;27;45572;-50
2023/03/09 02:46:07;;;;;;;;;2.33;1.67;;;;;;;;5060210;27;45439;-51
2023/03/09 02:48:33;;;;;;;;;1.00;1.00;;;;;;;;5062837;27;45504;-51
2023/03/09 02:50:58;;;;;;;;;2.00;1.00;;;;;;;;5075687;27;45595;-48
2023/03/09 02:53:24;;;;;;;;;3.33;1.33;;;;;;;;5075338;27;45502;-50
2023/03/09 02:55:49;;;;;;;;;1.00;0.33;;;;;;;;5064527;27;46249;-47
2023/03/09 02:58:15;;;;;;;;;2.67;1.00;;;;;;;;5054157;28;45491;-48
2023/03/09 03:00:40;;;;;;;;;2.33;1.00;;;;;;;;5055719;28;45558;-52
2023/03/09 03:03:05;;;;;;;;;1.00;1.00;;;;;;;;5050870;28;45447;-51
2023/03/09 03:05:30;;;;;;;;;0.67;0.67;;;;;;;;5062477;28;46325;-47
2023/03/09 03:07:55;;;;;;;;;3.33;2.67;;;;;;;;5069092;27;45497;-49
2023/03/09 03:10:21;;;;;;;;;4.00;1.00;;;;;;;;5068957;27;45385;-51
2023/03/09 03:12:46;;;;;;;;;3.00;1.33;;;;;;;;5053102;28;45613;-54
2023/03/09 03:15:11;;;;;;;;;2.33;1.00;;;;;;;;5058906;28;45597;-49
2023/03/09 03:17:37;;;;;;;;;1.00;1.00;;;;;;;;5068396;27;45514;-51
2023/03/09 03:20:04;;;;;;;;;3.33;1.00;;;;;;;;5075074;27;45767;-52
2023/03/09 03:22:30;;;;;;;;;0.67;0.67;;;;;;;;5060875;27;45624;-51
2023/03/09 03:24:55;;;;;;;;;3.33;1.00;;;;;;;;5054417;27;46243;-51
2023/03/09 03:27:20;;;;;;;;;2.00;2.00;;;;;;;;5046023;28;45771;-50
2023/03/09 03:29:45;;;;;;;;;2.00;2.00;;;;;;;;5056476;27;45498;-50
2023/03/09 03:32:11;;;;;;;;;2.00;2.00;;;;;;;;5052647;28;45451;-46
2023/03/09 03:34:36;;;;;;;;;1.67;1.67;;;;;;;;5053577;28;45474;-46
2023/03/09 03:37:01;;;;;;;;;4.00;2.00;;;;;;;;5053339;28;45506;-50
2023/03/09 03:39:26;;;;;;;;;2.00;2.00;;;;;;;;5067148;27;45453;-50
2023/03/09 03:41:52;;;;;;;;;2.67;2.00;;;;;;;;5054607;28;45562;-45
2023/03/09 03:44:17;;;;;;;;;6.33;3.00;;;;;;;;5056051;28;45484;-51
2023/03/09 03:46:42;;;;;;;;;2.33;2.33;;;;;;;;5063600;27;45585;-48
2023/03/09 03:49:07;;;;;;;;;2.00;1.00;;;;;;;;5054273;28;45397;-49
2023/03/09 03:51:33;;;;;;;;;1.00;1.00;;;;;;;;5059044;27;45463;-48
2023/03/09 03:53:58;;;;;;;;;6.33;5.00;;;;;;;;5057961;27;45484;-51
2023/03/09 03:56:23;;;;;;;;;4.00;2.33;;;;;;;;5072792;27;46135;-49
2023/03/09 03:58:48;;;;;;;;;1.00;0.33;;;;;;;;5073794;27;45469;-49
2023/03/09 04:01:13;;;;;;;;;2.00;2.00;;;;;;;;5074427;27;45473;-48
2023/03/09 04:03:39;;;;;;;;;3.00;1.67;;;;;;;;5074470;27;45922;-45
2023/03/09 04:06:04;;;;;;;;;1.67;1.00;;;;;;;;5071966;27;45531;-49
2023/03/09 04:08:30;;;;;;;;;4.00;4.00;;;;;;;;5074643;27;45458;-51
2023/03/09 04:10:55;;;;;;;;;3.00;3.00;;;;;;;;5063059;27;45843;-51
2023/03/09 04:13:21;;;;;;;;;2.00;2.00;;;;;;;;5072013;27;46033;-47
2023/03/09 04:15:46;;;;;;;;;3.67;3.67;;;;;;;;5063899;27;45557;-50
2023/03/09 04:18:11;;;;;;;;;5.00;3.00;;;;;;;;5070155;27;45525;-50
2023/03/09 04:20:37;;;;;;;;;2.00;2.00;;;;;;;;5074215;27;45598;-48
2023/03/09 04:23:03;;;;;;;;;4.00;1.00;;;;;;;;5069633;27;45527;-48
2023/03/09 04:25:28;;;;;;;;;1.00;1.00;;;;;;;;5073777;27;45484;-50
2023/03/09 04:27:54;;;;;;;;;8.00;3.67;;;;;;;;5074086;27;45549;-46
2023/03/09 04:30:20;;;;;;;;;3.00;2.00;;;;;;;;5059789;28;45571;-49
2023/03/09 04:32:46;;;;;;;;;2.00;2.00;;;;;;;;5059057;27;45965;-46
2023/03/09 04:35:11;;;;;;;;;3.00;2.00;;;;;;;;5073975;27;45441;-47
2023/03/09 04:37:36;;;;;;;;;4.00;1.67;;;;;;;;5073903;28;45450;-49
2023/03/09 04:40:03;;;;;;;;;2.33;1.00;;;;;;;;5066985;28;45582;-50
2023/03/09 04:42:28;;;;;;;;;1.00;1.00;;;;;;;;5073430;27;46191;-47
2023/03/09 04:44:53;;;;;;;;;1.00;1.00;;;;;;;;5073729;27;45504;-50
2023/03/09 04:47:18;;;;;;;;;2.33;2.33;;;;;;;;5063910;28;45474;-50
2023/03/09 04:49:43;;;;;;;;;2.00;2.00;;;;;;;;5073398;27;45609;-52
2023/03/09 04:52:09;;;;;;;;;2.00;2.00;;;;;;;;5073738;27;46306;-45
2023/03/09 04:54:34;;;;;;;;;1.33;1.33;;;;;;;;5070004;27;45485;-51
2023/03/09 04:56:59;;;;;;;;;3.00;3.00;;;;;;;;5058059;28;45624;-47
2023/03/09 04:59:24;;;;;;;;;2.00;2.00;;;;;;;;5073552;27;45684;-49
2023/03/09 05:01:49;;;;;;;;;2.00;2.00;;;;;;;;5073603;27;46022;-50
2023/03/09 05:04:15;;;;;;;;;1.33;1.33;;;;;;;;5059003;28;45525;-48
2023/03/09 05:06:40;;;;;;;;;2.33;2.33;;;;;;;;5064874;27;45627;-48
2023/03/09 05:09:05;;;;;;;;;3.00;3.00;;;;;;;;5063555;27;45573;-48
2023/03/09 05:11:31;;;;;;;;;2.00;2.00;;;;;;;;5065594;28;45386;-47
2023/03/09 05:13:56;;;;;;;;;2.00;1.33;;;;;;;;5068856;28;45564;-48
2023/03/09 05:16:22;;;;;;;;;2.67;2.00;;;;;;;;5037894;28;45487;-50
2023/03/09 05:18:50;;;;;;;;;4.00;3.00;;;;;;;;5064271;27;45600;-50
2023/03/09 05:21:16;;;;;;;;;1.67;1.00;;;;;;;;5066427;27;46314;-51
2023/03/09 05:23:41;;;;;;;;;3.00;1.00;;;;;;;;5072224;27;45567;-52
2023/03/09 05:26:07;;;;;;;;;4.00;2.00;;;;;;;;5058754;27;45759;-51
2023/03/09 05:28:36;;;;;;;;;3.67;3.00;;;;;;;;5064598;27;45587;-50
2023/03/09 05:31:01;;;;;;;;;3.67;2.33;;;;;;;;5047237;28;45543;-48
2023/03/09 05:33:27;;;;;;;;;2.00;2.00;;;;;;;;5044350;28;45514;-46
2023/03/09 05:35:52;;;;;;;;;2.33;2.33;;;;;;;;5048058;28;45548;-46
2023/03/09 05:38:17;;;;;;;;;3.00;1.00;;;;;;;;5034629;28;45415;-49
2023/03/09 05:40:43;;;;;;;;;3.00;2.67;;;;;;;;5054213;28;45700;-47
2023/03/09 05:43:08;;;;;;;;;2.67;1.67;;;;;;;;5069713;27;45502;-46
2023/03/09 05:45:33;;;;;;;;;4.67;2.67;;;;;;;;5070114;28;45680;-49
2023/03/09 05:47:59;;;;;;;;;3.50;2.00;;;;;;;;5056906;28;46715;-51
2023/03/09 05:50:24;;;;;;;;;1.67;0.33;;;;;;;;5064118;27;46841;-51
2023/03/09 05:52:50;;;;;;;;;3.00;2.00;;;;;;;;5063487;27;45508;-49
2023/03/09 05:55:15;;;;;;;;;4.00;1.00;;;;;;;;5075976;27;45457;-51
2023/03/09 05:57:40;;;;;;;;;4.00;2.33;;;;;;;;5059733;28;45399;-48
2023/03/09 06:00:06;;;;;;;;;3.00;3.00;;;;;;;;5061195;27;46272;-51
2023/03/09 06:02:32;;;;;;;;;3.00;1.67;;;;;;;;5059544;27;45546;-49
2023/03/09 06:04:58;;;;;;;;;4.00;1.00;;;;;;;;5060556;28;45592;-50
2023/03/09 06:07:24;;;;;;;;;2.00;2.00;;;;;;;;5071968;27;45653;-51
2023/03/09 06:09:49;;;;;;;;;2.00;2.00;;;;;;;;5074031;27;45534;-50
2023/03/09 06:12:14;;;;;;;;;5.00;3.00;;;;;;;;5048764;27;45465;-50
2023/03/09 06:14:40;;;;;;;;;3.00;2.00;;;;;;;;5056621;28;45606;-47
2023/03/09 06:17:05;;;;;;;;;2.00;1.00;;;;;;;;5076640;27;45580;-51
2023/03/09 06:19:30;;;;;;;;;2.00;2.00;;;;;;;;5072309;27;45466;-52
2023/03/09 06:21:55;;;;;;;;;1.00;1.00;;;;;;;;5065858;27;45477;-47
2023/03/09 06:24:21;;;;;;;;;1.00;1.00;;;;;;;;5076729;27;45529;-50
2023/03/09 06:26:46;;;;;;;;;1.00;1.00;;;;;;;;5073726;27;45453;-48
2023/03/09 06:29:11;;;;;;;;;3.67;1.00;;;;;;;;5069991;27;46318;-47
2023/03/09 06:31:36;;;;;;;;;1.00;1.00;;;;;;;;5060533;27;45541;-52
2023/03/09 06:34:02;;;;;;;;;5.33;1.33;;;;;;;;5076433;27;45473;-50
2023/03/09 06:36:27;;;;;;;;;1.00;1.00;;;;;;;;5076458;27;45521;-51
2023/03/09 06:38:52;;;;;;;;;3.33;1.00;;;;;;;;5061435;27;45863;-49
2023/03/09 06:41:27;;;;;;;;;4.00;2.67;;;;;;;;5068400;27;45614;-54
2023/03/09 06:43:52;;;;;;;;;3.33;1.00;;;;;;;;5062844;28;46218;-52
2023/03/09 06:46:17;;;;;;;;;2.67;1.00;;;;;;;;5075267;27;45549;-51
2023/03/09 06:48:42;;;;;;;;;2.00;2.00;;;;;;;;5075439;27;46108;-54
2023/03/09 06:51:07;;;;;;;;;0.33;0.33;;;;;;;;5066329;27;45498;-49
2023/03/09 06:53:33;;;;;;;;;5.00;2.33;;;;;;;;5063872;28;45528;-54
2023/03/09 06:55:59;;;;;;;;;2.00;2.00;;;;;;;;5070385;27;45428;-50
2023/03/09 06:58:25;;;;;;;;;4.33;3.00;;;;;;;;5074976;27;46134;-50
2023/03/09 07:00:50;;;;;;;;;3.00;1.33;;;;;;;;5075146;27;45707;-51
2023/03/09 07:03:17;;;;;;;;;2.00;1.00;;;;;;;;5060710;27;45510;-52
2023/03/09 07:05:42;;;;;;;;;6.33;3.33;;;;;;;;5065734;27;45407;-52
2023/03/09 07:08:07;;;;;;;;;2.33;1.00;;;;;;;;5069896;27;45822;-52
2023/03/09 07:10:32;;;;;;;;;6.33;3.33;;;;;;;;5052275;28;45483;-51
2023/03/09 07:12:58;;;;;;;;;4.00;1.33;;;;;;;;5055220;27;45639;-53
2023/03/09 07:15:23;;;;;;;;;2.33;2.33;;;;;;;;5067259;27;45872;-52
2023/03/09 07:17:48;;;;;;;;;4.00;4.00;;;;;;;;5067590;27;46244;-48
2023/03/09 07:20:13;;;;;;;;;3.67;3.67;;;;;;;;5055203;28;45421;-54
2023/03/09 07:22:39;;;;;;;;;3.00;2.00;;;;;;;;5065517;27;45549;-53
2023/03/09 07:25:04;;;;;;;;;4.67;4.00;;;;;;;;5074526;27;45495;-52
2023/03/09 07:27:30;;;;;;;;;5.00;3.00;;;;;;;;5074625;27;45532;-53
2023/03/09 07:29:56;;;;;;;;;5.00;3.00;;;;;;;;5074545;27;45445;-51
2023/03/09 07:32:21;;;;;;;;;4.33;3.00;;;;;;;;5074463;27;45528;-55
2023/03/09 07:34:46;;;;;;;;;4.33;3.00;;;;;;;;5074518;27;45565;-53
2023/03/09 07:37:11;;;;;;;;;4.00;3.00;;;;;;;;5074425;27;47210;-51
2023/03/09 07:39:37;;;;;;;;;4.67;3.00;;;;;;;;5074553;27;45469;-53
2023/03/09 07:42:02;;;;;;;;;3.00;2.00;;;;;;;;5074801;27;45489;-55
2023/03/09 07:44:27;;;;;;;;;4.33;3.00;;;;;;;;5074569;27;45657;-55
2023/03/09 07:46:53;;;;;;;;;2.00;2.00;;;;;;;;5074397;27;46271;-53
2023/03/09 07:49:18;;;;;;;;;3.67;2.33;;;;;;;;5073711;27;45458;-54
2023/03/09 07:51:43;;;;;;;;;2.67;2.67;;;;;;;;5074657;27;45550;-56
2023/03/09 07:54:09;;;;;;;;;4.00;4.00;;;;;;;;5074528;27;45585;-52
2023/03/09 07:56:35;;;;;;;;;2.33;2.33;;;;;;;;5074369;27;45553;-50
2023/03/09 07:59:00;;;;;;;;;5.00;4.00;;;;;;;;5055801;28;45515;-52
2023/03/09 08:01:27;;;;;;;;;4.00;3.00;;;;;;;;5074130;27;45815;-54
2023/03/09 08:03:52;;;;;;;;;3.33;3.33;;;;;;;;5074190;27;45427;-51
2023/03/09 08:06:18;;;;;;;;;2.67;2.00;;;;;;;;5073755;27;45493;-53
2023/03/09 08:08:44;;;;;;;;;10.00;6.33;;;;;;;;5073995;27;45646;-53
2023/03/09 08:11:10;;;;;;;;;6.00;3.33;;;;;;;;5073882;27;45529;-53
2023/03/09 08:13:35;;;;;;;;;3.33;2.00;;;;;;;;5074245;27;45560;-55
2023/03/09 08:16:01;;;;;;;;;4.33;4.33;;;;;;;;5072979;27;45505;-56
2023/03/09 08:18:27;;;;;;;;;6.67;5.00;;;;;;;;5073759;27;45524;-55
2023/03/09 08:20:52;;;;;;;;;7.67;4.00;;;;;;;;5074125;27;45522;-54
2023/03/09 08:23:17;;;;;;;;;5.00;3.67;;;;;;;;5073471;27;45594;-51
2023/03/09 08:25:43;;;;;;;;;3.67;3.00;;;;;;;;5073662;27;46372;-53
2023/03/09 08:28:09;;;;;;;;;3.33;1.67;;;;;;;;5063491;28;45768;-51
2023/03/09 08:30:34;;;;;;;;;5.33;4.00;;;;;;;;5055148;28;45502;-56
2023/03/09 08:32:59;;;;;;;;;8.67;3.00;;;;;;;;5073791;27;45683;-53
2023/03/09 08:35:28;;;;;;;;;4.33;4.33;;;;;;;;5073464;27;46432;-53
2023/03/09 08:37:53;;;;;;;;;5.33;5.00;;;;;;;;5055408;28;46171;-56
2023/03/09 08:40:18;;;;;;;;;2.00;2.00;;;;;;;;5073504;27;45422;-55
2023/03/09 08:42:43;;;;;;;;;5.00;4.00;;;;;;;;5073551;28;45625;-52
2023/03/09 08:45:09;;;;;;;;;7.67;6.00;;;;;;;;5073411;27;46096;-52
2023/03/09 08:47:35;;;;;;;;;3.00;3.00;;;;;;;;5073550;27;45549;-54
2023/03/09 08:50:00;;;;;;;;;3.67;3.33;;;;;;;;5073322;27;45410;-53
2023/03/09 08:52:26;;;;;;;;;5.00;3.00;;;;;;;;5073464;27;45367;-53
2023/03/09 08:54:51;;;;;;;;;6.67;3.00;;;;;;;;5073020;27;45533;-53
2023/03/09 08:57:17;;;;;;;;;3.33;3.00;;;;;;;;5073345;27;45549;-53
2023/03/09 08:59:43;;;;;;;;;6.67;4.00;;;;;;;;5073441;27;45482;-53
2023/03/09 09:02:14;;;;;;;;;9.33;2.67;;;;;;;;5073713;27;45583;-50
2023/03/09 09:04:40;;;;;;;;;10.00;6.00;;;;;;;;5072989;27;46053;-54
2023/03/09 09:07:05;;;;;;;;;11.00;5.67;;;;;;;;5054964;28;46265;-54
2023/03/09 09:09:30;;;;;;;;;4.00;4.00;;;;;;;;5073221;27;45581;-53
2023/03/09 09:11:56;;;;;;;;;4.33;2.00;;;;;;;;5073384;28;45462;-55
2023/03/09 09:14:21;;;;;;;;;6.33;5.00;;;;;;;;5073167;27;45575;-54
2023/03/09 09:16:46;;;;;;;;;11.00;5.33;;;;;;;;5072939;27;46087;-52
2023/03/09 09:19:11;;;;;;;;;7.33;5.33;;;;;;;;5073344;27;45443;-55
2023/03/09 09:21:37;;;;;;;;;5.00;3.00;;;;;;;;5072966;28;45565;-55
2023/03/09 09:24:03;;;;;;;;;5.00;4.00;;;;;;;;5073016;27;45564;-53
2023/03/09 09:26:29;;;;;;;;;6.33;5.67;;;;;;;;5058089;27;45465;-50
2023/03/09 09:28:54;;;;;;;;;5.67;3.67;;;;;;;;5058680;27;45594;-53
2023/03/09 09:31:23;;;;;;;;;8.00;3.67;;;;;;;;5072796;27;45522;-51
2023/03/09 09:33:48;;;;;;;;;7.33;5.67;;;;;;;;5072693;27;45513;-54
2023/03/09 09:36:14;;;;;;;;;6.00;5.67;;;;;;;;5072769;27;46147;-49
2023/03/09 09:38:40;;;;;;;;;6.33;3.67;;;;;;;;5073107;27;45572;-53
2023/03/09 09:41:19;;;;;;;;;7.00;4.67;;;;;;;;5072595;27;45431;-54
2023/03/09 09:43:46;;;;;;;;;6.67;5.00;;;;;;;;5072956;28;45598;-53
2023/03/09 09:46:13;;;;;;;;;6.00;3.67;;;;;;;;5072598;28;45519;-52
2023/03/09 09:48:40;;;;;;;;;8.00;4.00;;;;;;;;5072606;28;45548;-54
2023/03/09 09:51:05;;;;;;;;;6.33;4.33;;;;;;;;5072726;27;45376;-56
2023/03/09 09:53:56;;;;;;;;;7.00;5.33;;;;;;;;5072406;27;45485;-52
2023/03/09 09:56:24;;;;;;;;;6.00;6.00;;;;;;;;5072522;27;45448;-55
2023/03/09 09:58:53;;;;;;;;;8.00;5.67;;;;;;;;5061697;27;45460;-53
2023/03/09 10:01:39;;;;;;;;;7.00;5.00;;;;;;;;5069263;28;45533;-52
2023/03/09 10:04:07;;;;;;;;;5.00;3.67;;;;;;;;5054079;28;45540;-53
2023/03/09 10:06:33;;;;;;;;;6.00;5.00;;;;;;;;5072049;27;45464;-53
2023/03/09 10:09:01;;;;;;;;;4.00;4.00;;;;;;;;5072695;27;45509;-51
2023/03/09 10:11:38;;;;;;;;;5.67;5.33;;;;;;;;5072248;27;45467;-56
2023/03/09 10:14:15;;;;;;;;;4.33;4.33;;;;;;;;5072162;27;45533;-51
2023/03/09 10:16:43;;;;;;;;;8.67;7.00;;;;;;;;5072407;27;45511;-53
2023/03/09 10:19:14;;;;;;;;;10.33;5.00;;;;;;;;5072388;28;45548;-54
2023/03/09 10:21:52;;;;;;;;;5.00;5.00;;;;;;;;5069917;27;45548;-55
2023/03/09 10:24:21;;;;;;;;;4.33;3.33;;;;;;;;5062337;27;45495;-49
2023/03/09 10:26:59;;;;;;;;;8.00;7.00;;;;;;;;5053574;28;45578;-54
2023/03/09 10:29:39;;;;;;;;;5.00;3.67;;;;;;;;5044592;27;45566;-54
2023/03/09 10:32:12;;;;;;;;;4.33;4.33;;;;;;;;5072068;27;45481;-55
2023/03/09 10:34:45;;;;;;;;;9.00;6.00;;;;;;;;5071992;27;45626;-54
2023/03/09 10:37:15;;;;;;;;;8.33;5.00;;;;;;;;5071755;27;45469;-54
2023/03/09 10:39:42;;;;;;;;;4.67;3.33;;;;;;;;5074741;27;45567;-56
2023/03/09 10:42:17;;;;;;;;;6.67;4.00;;;;;;;;5075477;27;45633;-53
2023/03/09 10:44:45;;;;;;;;;7.00;5.00;;;;;;;;5075468;27;47030;-52
2023/03/09 10:47:12;;;;;;;;;5.00;3.00;;;;;;;;5075465;27;45659;-55
2023/03/09 10:49:37;;;;;;;;;3.67;2.67;;;;;;;;5075163;27;45540;-56
2023/03/09 10:52:04;;;;;;;;;6.00;5.00;;;;;;;;5075386;27;45426;-52
2023/03/09 10:54:31;;;;;;;;;2.67;2.67;;;;;;;;5075096;27;47634;-55
2023/03/09 10:56:57;;;;;;;;;13.33;10.67;;;;;;;;5075265;27;45536;-55
2023/03/09 10:59:23;;;;;;;;;5.00;5.00;;;;;;;;5056740;28;45582;-54
2023/03/09 11:01:49;;;;;;;;;4.00;4.00;;;;;;;;5075479;27;45496;-54
2023/03/09 11:04:21;;;;;;;;;8.00;6.00;;;;;;;;5056629;27;45461;-54
2023/03/09 11:06:48;;;;;;;;;5.00;4.00;;;;;;;;5074820;27;45585;-55
2023/03/09 11:09:17;;;;;;;;;5.00;3.00;;;;;;;;5075224;27;45430;-51
2023/03/09 11:11:45;;;;;;;;;6.00;3.00;;;;;;;;5075141;27;45518;-53
2023/03/09 11:14:28;;;;;;;;;7.00;4.00;;;;;;;;5074764;27;46126;-54
2023/03/09 11:16:55;;;;;;;;;4.67;4.67;;;;;;;;5074561;27;45590;-54
2023/03/09 11:19:21;;;;;;;;;7.33;5.00;;;;;;;;5074875;27;45513;-55
2023/03/09 11:21:51;;;;;;;;;4.67;4.67;;;;;;;;5074462;27;45572;-52
2023/03/09 11:24:17;;;;;;;;;7.67;7.33;;;;;;;;5074472;27;45493;-54
2023/03/09 11:26:46;;;;;;;;;8.67;6.00;;;;;;;;5074574;27;45482;-54
2023/03/09 11:29:17;;;;;;;;;10.00;5.33;;;;;;;;5060035;27;45477;-53
2023/03/09 11:31:43;;;;;;;;;5.33;5.33;;;;;;;;5074264;27;45529;-52
2023/03/09 11:34:21;;;;;;;;;8.33;7.00;;;;;;;;5055835;28;46119;-55
2023/03/09 11:36:52;;;;;;;;;6.33;4.00;;;;;;;;5074335;27;45486;-52
2023/03/09 11:39:21;;;;;;;;;5.00;3.00;;;;;;;;5074312;27;45532;-50
2023/03/09 11:41:47;;;;;;;;;5.00;4.00;;;;;;;;5074471;27;45494;-53
2023/03/09 11:44:19;;;;;;;;;6.33;4.33;;;;;;;;5073913;27;45471;-53
2023/03/09 11:46:44;;;;;;;;;10.00;9.00;;;;;;;;5074263;27;45543;-54
2023/03/09 11:49:20;;;;;;;;;14.33;10.00;;;;;;;;5073918;28;45458;-51
2023/03/09 11:51:49;;;;;;;;;13.33;11.67;;;;;;;;5074424;27;45763;-52
2023/03/09 11:54:18;;;;;;;;;6.33;6.33;;;;;;;;5073695;27;45434;-51
2023/03/09 11:56:45;;;;;;;;;7.00;3.00;;;;;;;;5056111;27;45479;-55
2023/03/09 11:59:17;;;;;;;;;8.33;4.00;;;;;;;;5074067;27;45503;-54
2023/03/09 12:01:45;;;;;;;;;5.00;4.00;;;;;;;;5074095;27;45589;-53
2023/03/09 12:04:14;;;;;;;;;5.33;3.67;;;;;;;;5074017;27;46087;-48
2023/03/09 12:06:49;;;;;;;;;5.00;4.00;;;;;;;;5073862;27;45537;-51
2023/03/09 12:09:35;;;;;;;;;6.67;5.67;;;;;;;;5059019;27;45589;-53
2023/03/09 12:12:20;;;;;;;;;7.00;5.33;;;;;;;;5018999;28;45589;-55
2023/03/09 12:14:49;;;;;;;;;6.00;6.00;;;;;;;;5018874;28;45526;-55
2023/03/09 12:17:16;;;;;;;;;4.00;3.33;;;;;;;;5055799;27;45478;-54
2023/03/09 12:19:45;;;;;;;;;8.00;5.00;;;;;;;;5050998;28;45486;-55
2023/03/09 12:22:16;;;;;;;;;4.67;3.33;;;;;;;;5064883;27;45458;-50
2023/03/09 12:24:43;;;;;;;;;5.00;4.67;;;;;;;;5074419;27;46184;-54
2023/03/09 12:27:19;;;;;;;;;5.00;5.00;;;;;;;;5058700;28;45526;-52
2023/03/09 12:29:46;;;;;;;;;8.67;7.00;;;;;;;;5055442;27;45590;-52
2023/03/09 12:32:17;;;;;;;;;9.00;6.67;;;;;;;;5025463;28;45574;-53
2023/03/09 12:34:43;;;;;;;;;4.33;4.33;;;;;;;;5050572;28;46393;-50
2023/03/09 12:37:27;;;;;;;;;4.00;3.00;;;;;;;;5067027;27;45473;-54
2023/03/09 12:40:11;;;;;;;;;11.67;11.33;;;;;;;;5051308;27;45469;-54
2023/03/09 12:42:39;;;;;;;;;5.00;5.00;;;;;;;;5054923;28;45633;-53
2023/03/09 12:45:10;;;;;;;;;8.00;6.00;;;;;;;;5073070;27;46126;-48
2023/03/09 12:47:43;;;;;;;;;5.67;5.00;;;;;;;;5071407;27;45575;-57
2023/03/09 12:50:20;;;;;;;;;7.00;6.00;;;;;;;;5073625;27;45446;-55
2023/03/09 12:53:02;;;;;;;;;8.33;6.00;;;;;;;;5055273;28;45467;-54
2023/03/09 12:55:35;;;;;;;;;6.00;5.00;;;;;;;;5073271;27;45450;-54
2023/03/09 12:58:26;;;;;;;;;6.33;6.33;;;;;;;;5073060;27;45569;-50
2023/03/09 13:00:54;;;;;;;;;4.67;4.67;;;;;;;;5072961;27;45536;-48
2023/03/09 13:03:40;;;;;;;;;5.00;5.00;;;;;;;;5073278;28;45614;-53
2023/03/09 13:06:20;;;;;;;;;10.33;5.33;;;;;;;;5041006;27;45528;-53
2023/03/09 13:08:50;;;;;;;;;11.00;6.00;;;;;;;;5054864;28;45534;-54
2023/03/09 13:11:21;;;;;;;;;5.67;4.00;;;;;;;;5073028;27;45416;-53
2023/03/09 13:13:46;;;;;;;;;5.67;4.00;;;;;;;;5073314;27;45664;-52
2023/03/09 13:16:31;;;;;;;;;4.67;3.67;;;;;;;;5073184;27;45463;-54
2023/03/09 13:19:23;;;;;;;;;4.67;4.67;;;;;;;;5023138;28;45536;-52
2023/03/09 13:22:00;;;;;;;;;5.00;4.33;;;;;;;;5070886;27;45517;-55
2023/03/09 13:24:38;;;;;;;;;4.67;3.67;;;;;;;;5073194;27;45619;-51
2023/03/09 13:27:04;;;;;;;;;3.00;3.00;;;;;;;;5071855;28;46068;-51
2023/03/09 13:29:31;;;;;;;;;5.00;4.00;;;;;;;;5059538;28;45540;-52
2023/03/09 13:31:57;;;;;;;;;7.33;5.00;;;;;;;;5073135;27;45542;-53
2023/03/09 13:34:24;;;;;;;;;3.00;3.00;;;;;;;;5072862;27;45561;-54
2023/03/09 13:36:51;;;;;;;;;4.00;3.00;;;;;;;;5072843;27;45631;-51
2023/03/09 13:39:18;;;;;;;;;8.67;5.67;;;;;;;;5072794;27;45519;-53
2023/03/09 13:41:44;;;;;;;;;7.00;5.67;;;;;;;;5072955;28;45502;-50
2023/03/09 13:44:16;;;;;;;;;6.00;5.00;;;;;;;;5072953;27;45584;-50
2023/03/09 13:46:49;;;;;;;;;6.33;4.00;;;;;;;;5072712;27;45494;-50
2023/03/09 13:49:16;;;;;;;;;4.33;3.00;;;;;;;;5072574;27;45498;-54
2023/03/09 13:51:48;;;;;;;;;4.00;3.00;;;;;;;;5073045;27;45561;-55
2023/03/09 13:54:22;;;;;;;;;4.00;4.00;;;;;;;;5072800;27;45490;-53
2023/03/09 13:57:06;;;;;;;;;3.00;3.00;;;;;;;;5072598;27;45995;-51
2023/03/09 13:59:43;;;;;;;;;4.00;2.33;;;;;;;;5054187;28;45428;-51
2023/03/09 14:02:09;;;;;;;;;1.00;1.00;;;;;;;;5072574;27;45555;-50
2023/03/09 14:04:43;;;;;;;;;4.33;3.00;;;;;;;;5072546;28;45509;-52
2023/03/09 14:07:12;;;;;;;;;3.67;3.67;;;;;;;;5072273;27;46224;-53
2023/03/09 14:09:38;;;;;;;;;3.67;2.33;;;;;;;;5072344;27;45596;-51
2023/03/09 14:12:03;;;;;;;;;14.00;11.67;;;;;;;;5072348;27;45860;-53
2023/03/09 14:14:29;;;;;;;;;4.00;4.00;;;;;;;;5074679;27;45450;-50
2023/03/09 14:16:55;;;;;;;;;2.00;2.00;;;;;;;;5057181;28;46968;-53
2023/03/09 14:19:26;;;;;;;;;4.00;3.67;;;;;;;;5076147;27;45521;-54
2023/03/09 14:21:52;;;;;;;;;5.00;3.00;;;;;;;;5057528;27;45526;-50
2023/03/09 14:24:34;;;;;;;;;4.00;3.67;;;;;;;;5075698;27;45462;-51
2023/03/09 14:27:21;;;;;;;;;1.00;1.00;;;;;;;;5075283;27;45496;-53
2023/03/09 14:29:46;;;;;;;;;4.33;3.00;;;;;;;;5064523;27;45513;-55
2023/03/09 14:32:19;;;;;;;;;2.00;2.00;;;;;;;;5075689;27;45555;-53
2023/03/09 14:34:45;;;;;;;;;3.00;3.00;;;;;;;;5075797;27;45488;-52
2023/03/09 14:37:18;;;;;;;;;4.33;2.33;;;;;;;;5075298;27;45973;-54
2023/03/09 14:39:43;;;;;;;;;5.67;4.00;;;;;;;;5075457;27;45556;-55
2023/03/09 14:42:08;;;;;;;;;6.00;3.00;;;;;;;;5075633;27;45481;-53
2023/03/09 14:44:38;;;;;;;;;3.00;3.00;;;;;;;;5075585;27;45501;-54
2023/03/09 14:47:23;;;;;;;;;4.00;3.00;;;;;;;;5074939;27;47452;-56